sensor_id;sensor_type;location;lat;lon;timestamp;P1;durP1;ratioP1;P2;durP2;ratioP2
20896;SDS011;10608;42.600;23.398;2023-09-12T00:00:15;25.97;;;24.67;;
20896;SDS011;10608;42.600;23.398;2023-09-12T00:02:41;19.90;;;18.70;;
20896;SDS011;10608;42.600;23.398;2023-09-12T00:05:06;19.33;;;18.33;;
20896;SDS011;10608;42.600;23.398;2023-09-12T00:07:32;23.27;;;22.17;;
20896;SDS011;10608;42.600;23.398;2023-09-12T00:09:57;21.13;;;20.13;;
20896;SDS011;10608;42.600;23.398;2023-09-12T00:12:23;24.43;;;23.07;;
20896;SDS011;10608;42.600;23.398;2023-09-12T00:14:52;21.27;;;20.17;;
20896;SDS011;10608;42.600;23.398;2023-09-12T00:17:17;25.47;;;24.27;;
20896;SDS011;10608;42.600;23.398;2023-09-12T00:19:43;25.97;;;24.83;;
20896;SDS011;10608;42.600;23.398;2023-09-12T00:22:08;31.43;;;29.77;;
20896;SDS011;10608;42.600;23.398;2023-09-12T00:24:33;26.30;;;24.67;;
20896;SDS011;10608;42.600;23.398;2023-09-12T00:26:59;24.47;;;23.07;;
20896;SDS011;10608;42.600;23.398;2023-09-12T00:29:24;25.33;;;24.13;;
20896;SDS011;10608;42.600;23.398;2023-09-12T00:31:50;28.97;;;27.57;;
20896;SDS011;10608;42.600;23.398;2023-09-12T00:34:16;25.43;;;24.03;;
20896;SDS011;10608;42.600;23.398;2023-09-12T00:36:42;30.63;;;28.83;;
20896;SDS011;10608;42.600;23.398;2023-09-12T00:39:07;35.27;;;33.37;;
20896;SDS011;10608;42.600;23.398;2023-09-12T00:41:33;23.47;;;22.27;;
20896;SDS011;10608;42.600;23.398;2023-09-12T00:43:58;17.37;;;16.37;;
20896;SDS011;10608;42.600;23.398;2023-09-12T00:46:24;19.80;;;18.60;;
20896;SDS011;10608;42.600;23.398;2023-09-12T00:48:51;18.10;;;17.30;;
20896;SDS011;10608;42.600;23.398;2023-09-12T00:51:18;24.27;;;23.10;;
20896;SDS011;10608;42.600;23.398;2023-09-12T00:53:45;17.83;;;16.93;;
20896;SDS011;10608;42.600;23.398;2023-09-12T00:56:11;15.27;;;14.47;;
20896;SDS011;10608;42.600;23.398;2023-09-12T00:58:37;13.33;;;12.60;;
20896;SDS011;10608;42.600;23.398;2023-09-12T01:01:03;13.70;;;12.43;;
20896;SDS011;10608;42.600;23.398;2023-09-12T01:03:29;21.03;;;16.97;;
20896;SDS011;10608;42.600;23.398;2023-09-12T01:05:55;17.47;;;16.53;;
20896;SDS011;10608;42.600;23.398;2023-09-12T01:08:24;18.27;;;16.93;;
20896;SDS011;10608;42.600;23.398;2023-09-12T01:10:49;13.17;;;12.47;;
20896;SDS011;10608;42.600;23.398;2023-09-12T01:13:18;18.53;;;17.53;;
20896;SDS011;10608;42.600;23.398;2023-09-12T01:15:44;21.43;;;19.83;;
20896;SDS011;10608;42.600;23.398;2023-09-12T01:18:09;21.10;;;19.80;;
20896;SDS011;10608;42.600;23.398;2023-09-12T01:20:36;23.57;;;22.03;;
20896;SDS011;10608;42.600;23.398;2023-09-12T01:28:31;33.67;;;32.10;;
20896;SDS011;10608;42.600;23.398;2023-09-12T01:31:01;41.53;;;39.60;;
20896;SDS011;10608;42.600;23.398;2023-09-12T01:33:28;36.07;;;34.47;;
20896;SDS011;10608;42.600;23.398;2023-09-12T01:35:54;31.53;;;29.17;;
20896;SDS011;10608;42.600;23.398;2023-09-12T01:38:21;23.73;;;22.47;;
20896;SDS011;10608;42.600;23.398;2023-09-12T01:40:48;35.13;;;33.37;;
20896;SDS011;10608;42.600;23.398;2023-09-12T01:43:17;33.73;;;31.93;;
20896;SDS011;10608;42.600;23.398;2023-09-12T01:45:44;37.53;;;35.40;;
20896;SDS011;10608;42.600;23.398;2023-09-12T01:48:12;32.00;;;30.37;;
20896;SDS011;10608;42.600;23.398;2023-09-12T01:50:43;33.43;;;31.80;;
20896;SDS011;10608;42.600;23.398;2023-09-12T01:53:09;33.70;;;32.13;;
20896;SDS011;10608;42.600;23.398;2023-09-12T01:55:35;34.10;;;32.50;;
20896;SDS011;10608;42.600;23.398;2023-09-12T01:58:02;33.17;;;31.67;;
20896;SDS011;10608;42.600;23.398;2023-09-12T02:00:27;30.70;;;29.20;;
20896;SDS011;10608;42.600;23.398;2023-09-12T02:02:53;28.97;;;27.47;;
20896;SDS011;10608;42.600;23.398;2023-09-12T02:05:18;33.17;;;31.30;;
20896;SDS011;10608;42.600;23.398;2023-09-12T02:07:46;32.10;;;30.33;;
20896;SDS011;10608;42.600;23.398;2023-09-12T02:10:12;31.43;;;29.93;;
20896;SDS011;10608;42.600;23.398;2023-09-12T02:12:38;36.03;;;34.33;;
20896;SDS011;10608;42.600;23.398;2023-09-12T02:15:04;38.23;;;36.00;;
20896;SDS011;10608;42.600;23.398;2023-09-12T02:17:30;37.97;;;36.07;;
20896;SDS011;10608;42.600;23.398;2023-09-12T02:19:55;34.43;;;32.63;;
20896;SDS011;10608;42.600;23.398;2023-09-12T02:22:21;34.90;;;33.33;;
20896;SDS011;10608;42.600;23.398;2023-09-12T02:24:46;33.53;;;31.90;;
20896;SDS011;10608;42.600;23.398;2023-09-12T02:27:12;35.40;;;33.63;;
20896;SDS011;10608;42.600;23.398;2023-09-12T02:29:38;32.13;;;30.43;;
20896;SDS011;10608;42.600;23.398;2023-09-12T02:32:04;31.73;;;29.77;;
20896;SDS011;10608;42.600;23.398;2023-09-12T02:34:30;38.53;;;36.60;;
20896;SDS011;10608;42.600;23.398;2023-09-12T02:36:56;35.60;;;34.00;;
20896;SDS011;10608;42.600;23.398;2023-09-12T02:39:21;35.23;;;33.43;;
20896;SDS011;10608;42.600;23.398;2023-09-12T02:41:46;31.53;;;30.00;;
20896;SDS011;10608;42.600;23.398;2023-09-12T02:44:12;30.57;;;29.17;;
20896;SDS011;10608;42.600;23.398;2023-09-12T02:46:37;32.53;;;30.80;;
20896;SDS011;10608;42.600;23.398;2023-09-12T02:49:02;34.70;;;33.00;;
20896;SDS011;10608;42.600;23.398;2023-09-12T02:51:28;41.50;;;39.37;;
20896;SDS011;10608;42.600;23.398;2023-09-12T02:53:54;40.77;;;38.30;;
20896;SDS011;10608;42.600;23.398;2023-09-12T02:56:19;39.03;;;37.30;;
20896;SDS011;10608;42.600;23.398;2023-09-12T02:58:48;35.53;;;33.77;;
20896;SDS011;10608;42.600;23.398;2023-09-12T03:01:18;35.83;;;33.93;;
20896;SDS011;10608;42.600;23.398;2023-09-12T03:03:48;38.17;;;36.40;;
20896;SDS011;10608;42.600;23.398;2023-09-12T03:06:14;37.63;;;35.77;;
20896;SDS011;10608;42.600;23.398;2023-09-12T03:08:40;30.87;;;29.27;;
20896;SDS011;10608;42.600;23.398;2023-09-12T03:11:06;35.27;;;33.60;;
20896;SDS011;10608;42.600;23.398;2023-09-12T03:13:33;35.23;;;33.60;;
20896;SDS011;10608;42.600;23.398;2023-09-12T03:15:59;34.77;;;33.10;;
20896;SDS011;10608;42.600;23.398;2023-09-12T03:18:25;39.83;;;37.93;;
20896;SDS011;10608;42.600;23.398;2023-09-12T03:20:51;39.80;;;37.63;;
20896;SDS011;10608;42.600;23.398;2023-09-12T03:23:16;39.70;;;37.60;;
20896;SDS011;10608;42.600;23.398;2023-09-12T03:25:42;29.67;;;28.30;;
20896;SDS011;10608;42.600;23.398;2023-09-12T03:28:07;32.03;;;30.43;;
20896;SDS011;10608;42.600;23.398;2023-09-12T03:30:34;29.90;;;28.40;;
20896;SDS011;10608;42.600;23.398;2023-09-12T03:33:01;27.00;;;25.70;;
20896;SDS011;10608;42.600;23.398;2023-09-12T03:35:26;22.80;;;21.77;;
20896;SDS011;10608;42.600;23.398;2023-09-12T03:37:53;23.17;;;21.90;;
20896;SDS011;10608;42.600;23.398;2023-09-12T03:40:18;20.50;;;19.50;;
20896;SDS011;10608;42.600;23.398;2023-09-12T03:42:44;25.03;;;23.90;;
20896;SDS011;10608;42.600;23.398;2023-09-12T03:45:09;30.40;;;28.80;;
20896;SDS011;10608;42.600;23.398;2023-09-12T03:47:35;44.20;;;41.83;;
20896;SDS011;10608;42.600;23.398;2023-09-12T03:50:00;52.00;;;49.40;;
20896;SDS011;10608;42.600;23.398;2023-09-12T03:52:26;49.80;;;47.47;;
20896;SDS011;10608;42.600;23.398;2023-09-12T03:54:51;36.17;;;34.57;;
20896;SDS011;10608;42.600;23.398;2023-09-12T03:57:16;30.00;;;28.67;;
20896;SDS011;10608;42.600;23.398;2023-09-12T03:59:42;29.10;;;27.50;;
20896;SDS011;10608;42.600;23.398;2023-09-12T04:02:08;28.80;;;27.30;;
20896;SDS011;10608;42.600;23.398;2023-09-12T04:04:33;32.20;;;30.73;;
20896;SDS011;10608;42.600;23.398;2023-09-12T04:06:59;36.10;;;34.43;;
20896;SDS011;10608;42.600;23.398;2023-09-12T04:09:24;38.33;;;36.50;;
20896;SDS011;10608;42.600;23.398;2023-09-12T04:11:49;28.20;;;26.70;;
20896;SDS011;10608;42.600;23.398;2023-09-12T04:14:15;22.53;;;21.47;;
20896;SDS011;10608;42.600;23.398;2023-09-12T04:16:40;25.67;;;24.40;;
20896;SDS011;10608;42.600;23.398;2023-09-12T04:19:05;27.27;;;25.83;;
20896;SDS011;10608;42.600;23.398;2023-09-12T04:21:31;26.27;;;24.97;;
20896;SDS011;10608;42.600;23.398;2023-09-12T04:23:56;23.60;;;22.23;;
20896;SDS011;10608;42.600;23.398;2023-09-12T04:26:22;21.83;;;20.43;;
20896;SDS011;10608;42.600;23.398;2023-09-12T04:28:47;41.53;;;39.27;;
20896;SDS011;10608;42.600;23.398;2023-09-12T04:31:13;60.77;;;57.80;;
20896;SDS011;10608;42.600;23.398;2023-09-12T04:33:38;36.50;;;34.80;;
20896;SDS011;10608;42.600;23.398;2023-09-12T04:36:04;35.63;;;34.00;;
20896;SDS011;10608;42.600;23.398;2023-09-12T04:38:30;20.23;;;19.23;;
20896;SDS011;10608;42.600;23.398;2023-09-12T04:40:56;16.70;;;15.90;;
20896;SDS011;10608;42.600;23.398;2023-09-12T04:43:22;16.57;;;15.77;;
20896;SDS011;10608;42.600;23.398;2023-09-12T04:45:48;16.67;;;15.87;;
20896;SDS011;10608;42.600;23.398;2023-09-12T04:48:14;16.20;;;15.40;;
20896;SDS011;10608;42.600;23.398;2023-09-12T04:50:42;17.10;;;16.10;;
20896;SDS011;10608;42.600;23.398;2023-09-12T04:53:07;15.77;;;14.97;;
20896;SDS011;10608;42.600;23.398;2023-09-12T04:55:35;20.23;;;19.27;;
20896;SDS011;10608;42.600;23.398;2023-09-12T04:58:01;25.13;;;23.33;;
20896;SDS011;10608;42.600;23.398;2023-09-12T05:00:26;20.77;;;19.77;;
20896;SDS011;10608;42.600;23.398;2023-09-12T05:02:52;19.97;;;19.07;;
20896;SDS011;10608;42.600;23.398;2023-09-12T05:05:17;24.37;;;23.27;;
20896;SDS011;10608;42.600;23.398;2023-09-12T05:07:42;15.83;;;14.97;;
20896;SDS011;10608;42.600;23.398;2023-09-12T05:10:08;13.43;;;12.53;;
20896;SDS011;10608;42.600;23.398;2023-09-12T05:12:33;13.00;;;11.60;;
20896;SDS011;10608;42.600;23.398;2023-09-12T05:14:59;15.30;;;14.43;;
20896;SDS011;10608;42.600;23.398;2023-09-12T05:17:24;11.87;;;11.27;;
20896;SDS011;10608;42.600;23.398;2023-09-12T05:19:50;10.23;;;9.67;;
20896;SDS011;10608;42.600;23.398;2023-09-12T05:22:15;10.50;;;9.90;;
20896;SDS011;10608;42.600;23.398;2023-09-12T05:24:41;12.00;;;11.20;;
20896;SDS011;10608;42.600;23.398;2023-09-12T05:27:06;11.13;;;10.53;;
20896;SDS011;10608;42.600;23.398;2023-09-12T05:29:31;10.77;;;10.17;;
20896;SDS011;10608;42.600;23.398;2023-09-12T05:31:57;10.30;;;9.80;;
20896;SDS011;10608;42.600;23.398;2023-09-12T05:34:22;11.80;;;11.20;;
20896;SDS011;10608;42.600;23.398;2023-09-12T05:36:48;10.03;;;9.33;;
20896;SDS011;10608;42.600;23.398;2023-09-12T05:39:13;10.50;;;9.53;;
20896;SDS011;10608;42.600;23.398;2023-09-12T05:41:39;12.77;;;11.97;;
20896;SDS011;10608;42.600;23.398;2023-09-12T05:44:05;14.77;;;13.83;;
20896;SDS011;10608;42.600;23.398;2023-09-12T05:46:30;11.97;;;11.10;;
20896;SDS011;10608;42.600;23.398;2023-09-12T05:48:55;13.87;;;13.17;;
20896;SDS011;10608;42.600;23.398;2023-09-12T05:51:21;11.57;;;10.83;;
20896;SDS011;10608;42.600;23.398;2023-09-12T05:53:46;9.73;;;9.03;;
20896;SDS011;10608;42.600;23.398;2023-09-12T05:56:12;12.40;;;10.57;;
20896;SDS011;10608;42.600;23.398;2023-09-12T05:58:37;11.93;;;10.70;;
20896;SDS011;10608;42.600;23.398;2023-09-12T06:01:07;12.37;;;11.73;;
20896;SDS011;10608;42.600;23.398;2023-09-12T06:03:32;11.83;;;11.00;;
20896;SDS011;10608;42.600;23.398;2023-09-12T06:05:58;11.20;;;10.60;;
20896;SDS011;10608;42.600;23.398;2023-09-12T06:08:24;10.93;;;10.40;;
20896;SDS011;10608;42.600;23.398;2023-09-12T06:10:49;12.33;;;11.27;;
20896;SDS011;10608;42.600;23.398;2023-09-12T06:13:18;14.47;;;13.67;;
20896;SDS011;10608;42.600;23.398;2023-09-12T06:15:44;11.50;;;10.50;;
20896;SDS011;10608;42.600;23.398;2023-09-12T06:18:09;13.70;;;12.97;;
20896;SDS011;10608;42.600;23.398;2023-09-12T06:20:35;14.30;;;13.43;;
20896;SDS011;10608;42.600;23.398;2023-09-12T06:23:00;14.87;;;13.80;;
20896;SDS011;10608;42.600;23.398;2023-09-12T06:25:26;12.73;;;12.13;;
20896;SDS011;10608;42.600;23.398;2023-09-12T06:27:51;11.67;;;11.07;;
20896;SDS011;10608;42.600;23.398;2023-09-12T06:30:16;14.80;;;13.90;;
20896;SDS011;10608;42.600;23.398;2023-09-12T06:32:42;16.87;;;15.93;;
20896;SDS011;10608;42.600;23.398;2023-09-12T06:35:07;15.47;;;14.60;;
20896;SDS011;10608;42.600;23.398;2023-09-12T06:37:35;11.70;;;11.10;;
20896;SDS011;10608;42.600;23.398;2023-09-12T06:40:01;13.40;;;12.40;;
20896;SDS011;10608;42.600;23.398;2023-09-12T06:42:28;14.20;;;13.30;;
20896;SDS011;10608;42.600;23.398;2023-09-12T06:44:54;15.20;;;14.40;;
20896;SDS011;10608;42.600;23.398;2023-09-12T06:47:19;12.30;;;11.50;;
20896;SDS011;10608;42.600;23.398;2023-09-12T06:49:44;10.03;;;9.53;;
20896;SDS011;10608;42.600;23.398;2023-09-12T06:52:10;10.43;;;9.73;;
20896;SDS011;10608;42.600;23.398;2023-09-12T06:54:35;13.23;;;12.00;;
20896;SDS011;10608;42.600;23.398;2023-09-12T06:57:01;12.93;;;12.23;;
20896;SDS011;10608;42.600;23.398;2023-09-12T06:59:26;8.53;;;8.03;;
20896;SDS011;10608;42.600;23.398;2023-09-12T07:01:51;9.80;;;9.30;;
20896;SDS011;10608;42.600;23.398;2023-09-12T07:04:17;8.03;;;7.63;;
20896;SDS011;10608;42.600;23.398;2023-09-12T07:06:42;8.87;;;8.40;;
20896;SDS011;10608;42.600;23.398;2023-09-12T07:09:08;9.13;;;8.63;;
20896;SDS011;10608;42.600;23.398;2023-09-12T07:11:34;9.50;;;8.80;;
20896;SDS011;10608;42.600;23.398;2023-09-12T07:14:00;10.03;;;9.53;;
20896;SDS011;10608;42.600;23.398;2023-09-12T07:16:25;10.20;;;9.70;;
20896;SDS011;10608;42.600;23.398;2023-09-12T07:18:50;9.23;;;8.63;;
20896;SDS011;10608;42.600;23.398;2023-09-12T07:21:16;9.83;;;9.00;;
20896;SDS011;10608;42.600;23.398;2023-09-12T07:23:42;13.40;;;12.40;;
20896;SDS011;10608;42.600;23.398;2023-09-12T07:26:11;12.80;;;11.80;;
20896;SDS011;10608;42.600;23.398;2023-09-12T07:28:40;9.80;;;9.07;;
20896;SDS011;10608;42.600;23.398;2023-09-12T07:31:05;8.43;;;8.03;;
20896;SDS011;10608;42.600;23.398;2023-09-12T07:33:32;8.80;;;8.20;;
20896;SDS011;10608;42.600;23.398;2023-09-12T07:35:58;9.02;;;8.40;;
20896;SDS011;10608;42.600;23.398;2023-09-12T07:38:24;8.32;;;7.82;;
20896;SDS011;10608;42.600;23.398;2023-09-12T07:40:50;12.15;;;7.72;;
20896;SDS011;10608;42.600;23.398;2023-09-12T07:43:16;8.60;;;8.13;;
20896;SDS011;10608;42.600;23.398;2023-09-12T07:45:41;8.43;;;7.80;;
20896;SDS011;10608;42.600;23.398;2023-09-12T07:48:07;8.98;;;8.48;;
20896;SDS011;10608;42.600;23.398;2023-09-12T07:50:33;9.30;;;8.40;;
20896;SDS011;10608;42.600;23.398;2023-09-12T07:52:59;8.53;;;7.93;;
20896;SDS011;10608;42.600;23.398;2023-09-12T07:55:25;10.70;;;9.83;;
20896;SDS011;10608;42.600;23.398;2023-09-12T07:57:50;9.33;;;8.63;;
20896;SDS011;10608;42.600;23.398;2023-09-12T08:00:16;8.90;;;8.30;;
20896;SDS011;10608;42.600;23.398;2023-09-12T08:02:42;9.80;;;9.00;;
20896;SDS011;10608;42.600;23.398;2023-09-12T08:05:07;10.07;;;9.40;;
20896;SDS011;10608;42.600;23.398;2023-09-12T08:07:33;9.10;;;8.43;;
20896;SDS011;10608;42.600;23.398;2023-09-12T08:09:59;9.33;;;8.73;;
20896;SDS011;10608;42.600;23.398;2023-09-12T08:12:25;9.40;;;8.67;;
20896;SDS011;10608;42.600;23.398;2023-09-12T08:14:52;10.10;;;9.20;;
20896;SDS011;10608;42.600;23.398;2023-09-12T08:17:18;10.47;;;9.47;;
20896;SDS011;10608;42.600;23.398;2023-09-12T08:19:44;10.80;;;9.90;;
20896;SDS011;10608;42.600;23.398;2023-09-12T08:22:10;14.20;;;9.87;;
20896;SDS011;10608;42.600;23.398;2023-09-12T08:24:37;10.97;;;10.20;;
20896;SDS011;10608;42.600;23.398;2023-09-12T08:27:04;11.07;;;10.37;;
20896;SDS011;10608;42.600;23.398;2023-09-12T08:29:30;10.03;;;9.43;;
20896;SDS011;10608;42.600;23.398;2023-09-12T08:31:57;9.90;;;9.30;;
20896;SDS011;10608;42.600;23.398;2023-09-12T08:34:23;10.17;;;9.30;;
20896;SDS011;10608;42.600;23.398;2023-09-12T08:36:48;10.50;;;9.90;;
20896;SDS011;10608;42.600;23.398;2023-09-12T08:39:14;11.13;;;10.33;;
20896;SDS011;10608;42.600;23.398;2023-09-12T08:41:41;12.17;;;11.27;;
20896;SDS011;10608;42.600;23.398;2023-09-12T08:44:13;11.43;;;10.70;;
20896;SDS011;10608;42.600;23.398;2023-09-12T08:46:40;11.97;;;11.20;;
20896;SDS011;10608;42.600;23.398;2023-09-12T08:49:07;11.63;;;10.53;;
20896;SDS011;10608;42.600;23.398;2023-09-12T08:51:34;13.30;;;12.37;;
20896;SDS011;10608;42.600;23.398;2023-09-12T08:54:00;11.57;;;10.77;;
20896;SDS011;10608;42.600;23.398;2023-09-12T08:56:28;12.73;;;9.13;;
20896;SDS011;10608;42.600;23.398;2023-09-12T08:58:54;9.53;;;8.93;;
20896;SDS011;10608;42.600;23.398;2023-09-12T09:01:20;10.20;;;8.60;;
20896;SDS011;10608;42.600;23.398;2023-09-12T09:03:46;11.30;;;10.13;;
20896;SDS011;10608;42.600;23.398;2023-09-12T09:06:12;10.67;;;9.43;;
20896;SDS011;10608;42.600;23.398;2023-09-12T09:08:40;9.97;;;9.17;;
20896;SDS011;10608;42.600;23.398;2023-09-12T09:11:08;10.27;;;9.30;;
20896;SDS011;10608;42.600;23.398;2023-09-12T09:13:33;10.03;;;9.17;;
20896;SDS011;10608;42.600;23.398;2023-09-12T09:18:53;10.53;;;9.57;;
20896;SDS011;10608;42.600;23.398;2023-09-12T09:21:29;11.70;;;9.20;;
20896;SDS011;10608;42.600;23.398;2023-09-12T09:23:57;11.13;;;10.13;;
20896;SDS011;10608;42.600;23.398;2023-09-12T09:26:24;11.07;;;10.03;;
20896;SDS011;10608;42.600;23.398;2023-09-12T09:29:06;10.33;;;9.23;;
20896;SDS011;10608;42.600;23.398;2023-09-12T09:31:33;10.17;;;9.20;;
20896;SDS011;10608;42.600;23.398;2023-09-12T09:33:59;9.60;;;8.67;;
20896;SDS011;10608;42.600;23.398;2023-09-12T09:36:26;10.20;;;9.47;;
20896;SDS011;10608;42.600;23.398;2023-09-12T09:38:52;11.17;;;8.77;;
20896;SDS011;10608;42.600;23.398;2023-09-12T09:41:21;9.90;;;8.63;;
20896;SDS011;10608;42.600;23.398;2023-09-12T09:43:50;9.57;;;8.83;;
20896;SDS011;10608;42.600;23.398;2023-09-12T09:46:17;10.27;;;8.20;;
20896;SDS011;10608;42.600;23.398;2023-09-12T09:48:52;9.07;;;8.33;;
20896;SDS011;10608;42.600;23.398;2023-09-12T09:51:18;10.23;;;9.40;;
20896;SDS011;10608;42.600;23.398;2023-09-12T09:53:44;11.27;;;10.20;;
20896;SDS011;10608;42.600;23.398;2023-09-12T09:58:36;11.50;;;10.60;;
20896;SDS011;10608;42.600;23.398;2023-09-12T10:01:06;9.83;;;9.13;;
20896;SDS011;10608;42.600;23.398;2023-09-12T10:03:36;9.67;;;8.87;;
20896;SDS011;10608;42.600;23.398;2023-09-12T10:06:02;9.20;;;8.57;;
20896;SDS011;10608;42.600;23.398;2023-09-12T10:08:30;10.03;;;9.37;;
20896;SDS011;10608;42.600;23.398;2023-09-12T10:10:57;11.10;;;10.10;;
20896;SDS011;10608;42.600;23.398;2023-09-12T10:13:24;12.03;;;10.97;;
20896;SDS011;10608;42.600;23.398;2023-09-12T10:15:56;11.37;;;10.67;;
20896;SDS011;10608;42.600;23.398;2023-09-12T10:18:23;10.40;;;9.40;;
20896;SDS011;10608;42.600;23.398;2023-09-12T10:20:52;10.93;;;10.17;;
20896;SDS011;10608;42.600;23.398;2023-09-12T10:23:48;13.03;;;12.03;;
20896;SDS011;10608;42.600;23.398;2023-09-12T10:26:16;10.80;;;10.00;;
20896;SDS011;10608;42.600;23.398;2023-09-12T10:28:42;13.20;;;12.37;;
20896;SDS011;10608;42.600;23.398;2023-09-12T10:31:08;12.93;;;12.13;;
20896;SDS011;10608;42.600;23.398;2023-09-12T10:33:37;12.80;;;12.00;;
20896;SDS011;10608;42.600;23.398;2023-09-12T10:36:03;11.17;;;10.07;;
20896;SDS011;10608;42.600;23.398;2023-09-12T10:38:29;12.17;;;11.23;;
20896;SDS011;10608;42.600;23.398;2023-09-12T10:41:12;10.80;;;10.17;;
20896;SDS011;10608;42.600;23.398;2023-09-12T10:43:41;10.43;;;9.67;;
20896;SDS011;10608;42.600;23.398;2023-09-12T10:46:14;10.43;;;9.83;;
20896;SDS011;10608;42.600;23.398;2023-09-12T10:48:43;11.80;;;11.00;;
20896;SDS011;10608;42.600;23.398;2023-09-12T10:51:09;13.83;;;12.93;;
20896;SDS011;10608;42.600;23.398;2023-09-12T10:53:37;14.57;;;13.70;;
20896;SDS011;10608;42.600;23.398;2023-09-12T11:01:31;12.27;;;11.53;;
20896;SDS011;10608;42.600;23.398;2023-09-12T11:03:58;11.90;;;11.07;;
20896;SDS011;10608;42.600;23.398;2023-09-12T11:06:30;14.43;;;13.07;;
20896;SDS011;10608;42.600;23.398;2023-09-12T11:11:39;9.47;;;8.90;;
20896;SDS011;10608;42.600;23.398;2023-09-12T11:14:07;9.33;;;8.63;;
20896;SDS011;10608;42.600;23.398;2023-09-12T11:16:33;10.50;;;9.80;;
20896;SDS011;10608;42.600;23.398;2023-09-12T11:21:50;9.50;;;8.60;;
20896;SDS011;10608;42.600;23.398;2023-09-12T11:24:17;9.17;;;8.53;;
20896;SDS011;10608;42.600;23.398;2023-09-12T11:26:54;9.20;;;8.60;;
20896;SDS011;10608;42.600;23.398;2023-09-12T11:32:25;9.37;;;8.77;;
20896;SDS011;10608;42.600;23.398;2023-09-12T11:34:52;9.00;;;8.40;;
20896;SDS011;10608;42.600;23.398;2023-09-12T11:37:27;9.40;;;8.70;;
20896;SDS011;10608;42.600;23.398;2023-09-12T11:39:54;10.17;;;9.53;;
20896;SDS011;10608;42.600;23.398;2023-09-12T11:42:22;9.07;;;8.57;;
20896;SDS011;10608;42.600;23.398;2023-09-12T11:44:50;11.20;;;9.70;;
20896;SDS011;10608;42.600;23.398;2023-09-12T11:47:17;9.30;;;8.60;;
20896;SDS011;10608;42.600;23.398;2023-09-12T11:49:42;10.17;;;9.57;;
20896;SDS011;10608;42.600;23.398;2023-09-12T11:52:14;9.93;;;9.30;;
20896;SDS011;10608;42.600;23.398;2023-09-12T11:54:44;10.50;;;9.83;;
20896;SDS011;10608;42.600;23.398;2023-09-12T11:57:11;9.93;;;9.33;;
20896;SDS011;10608;42.600;23.398;2023-09-12T11:59:39;9.77;;;9.13;;
20896;SDS011;10608;42.600;23.398;2023-09-12T12:02:09;10.83;;;10.03;;
20896;SDS011;10608;42.600;23.398;2023-09-12T12:04:36;10.03;;;9.07;;
20896;SDS011;10608;42.600;23.398;2023-09-12T12:07:02;10.40;;;9.37;;
20896;SDS011;10608;42.600;23.398;2023-09-12T12:09:31;9.70;;;9.13;;
20896;SDS011;10608;42.600;23.398;2023-09-12T12:12:03;11.17;;;10.47;;
20896;SDS011;10608;42.600;23.398;2023-09-12T12:14:38;11.33;;;10.63;;
20896;SDS011;10608;42.600;23.398;2023-09-12T12:17:05;11.27;;;10.57;;
20896;SDS011;10608;42.600;23.398;2023-09-12T12:19:33;11.23;;;10.17;;
20896;SDS011;10608;42.600;23.398;2023-09-12T12:21:58;10.73;;;10.10;;
20896;SDS011;10608;42.600;23.398;2023-09-12T12:24:24;10.90;;;10.00;;
20896;SDS011;10608;42.600;23.398;2023-09-12T12:26:49;10.63;;;9.97;;
20896;SDS011;10608;42.600;23.398;2023-09-12T12:29:15;11.33;;;10.70;;
20896;SDS011;10608;42.600;23.398;2023-09-12T12:31:40;11.00;;;10.30;;
20896;SDS011;10608;42.600;23.398;2023-09-12T12:34:05;10.07;;;9.37;;
20896;SDS011;10608;42.600;23.398;2023-09-12T12:36:31;9.97;;;9.37;;
20896;SDS011;10608;42.600;23.398;2023-09-12T12:38:56;11.00;;;10.40;;
20896;SDS011;10608;42.600;23.398;2023-09-12T12:41:23;11.53;;;10.83;;
20896;SDS011;10608;42.600;23.398;2023-09-12T12:43:51;11.07;;;10.23;;
20896;SDS011;10608;42.600;23.398;2023-09-12T12:46:17;10.80;;;10.00;;
20896;SDS011;10608;42.600;23.398;2023-09-12T12:48:46;12.33;;;11.53;;
20896;SDS011;10608;42.600;23.398;2023-09-12T12:51:24;11.90;;;11.27;;
20896;SDS011;10608;42.600;23.398;2023-09-12T12:53:54;9.97;;;9.47;;
20896;SDS011;10608;42.600;23.398;2023-09-12T12:56:28;10.60;;;10.00;;
20896;SDS011;10608;42.600;23.398;2023-09-12T12:58:54;11.83;;;10.90;;
20896;SDS011;10608;42.600;23.398;2023-09-12T13:01:22;11.63;;;10.77;;
20896;SDS011;10608;42.600;23.398;2023-09-12T13:03:49;11.10;;;10.27;;
20896;SDS011;10608;42.600;23.398;2023-09-12T13:06:15;10.97;;;10.33;;
20896;SDS011;10608;42.600;23.398;2023-09-12T13:08:42;10.57;;;9.73;;
20896;SDS011;10608;42.600;23.398;2023-09-12T13:11:09;9.20;;;8.70;;
20896;SDS011;10608;42.600;23.398;2023-09-12T13:13:36;9.57;;;9.03;;
20896;SDS011;10608;42.600;23.398;2023-09-12T13:16:02;10.70;;;9.80;;
20896;SDS011;10608;42.600;23.398;2023-09-12T13:18:35;11.10;;;9.97;;
20896;SDS011;10608;42.600;23.398;2023-09-12T13:21:02;10.90;;;10.20;;
20896;SDS011;10608;42.600;23.398;2023-09-12T13:23:28;10.27;;;9.57;;
20896;SDS011;10608;42.600;23.398;2023-09-12T13:25:54;11.87;;;10.97;;
20896;SDS011;10608;42.600;23.398;2023-09-12T13:28:20;10.83;;;10.13;;
20896;SDS011;10608;42.600;23.398;2023-09-12T13:30:45;11.70;;;10.90;;
20896;SDS011;10608;42.600;23.398;2023-09-12T13:33:11;11.10;;;10.43;;
20896;SDS011;10608;42.600;23.398;2023-09-12T13:35:40;11.97;;;11.17;;
20896;SDS011;10608;42.600;23.398;2023-09-12T13:38:06;11.30;;;10.57;;
20896;SDS011;10608;42.600;23.398;2023-09-12T13:40:37;9.43;;;8.83;;
20896;SDS011;10608;42.600;23.398;2023-09-12T13:43:06;10.77;;;9.97;;
20896;SDS011;10608;42.600;23.398;2023-09-12T13:45:32;13.17;;;11.83;;
20896;SDS011;10608;42.600;23.398;2023-09-12T13:47:58;11.43;;;10.63;;
20896;SDS011;10608;42.600;23.398;2023-09-12T13:50:24;12.17;;;10.97;;
20896;SDS011;10608;42.600;23.398;2023-09-12T13:52:51;11.70;;;10.63;;
20896;SDS011;10608;42.600;23.398;2023-09-12T13:55:17;10.80;;;9.80;;
20896;SDS011;10608;42.600;23.398;2023-09-12T13:57:42;10.77;;;10.07;;
20896;SDS011;10608;42.600;23.398;2023-09-12T14:00:08;10.33;;;9.50;;
20896;SDS011;10608;42.600;23.398;2023-09-12T14:02:34;10.80;;;10.23;;
20896;SDS011;10608;42.600;23.398;2023-09-12T14:04:59;11.57;;;10.83;;
20896;SDS011;10608;42.600;23.398;2023-09-12T14:07:25;11.73;;;10.73;;
20896;SDS011;10608;42.600;23.398;2023-09-12T14:09:51;11.43;;;10.73;;
20896;SDS011;10608;42.600;23.398;2023-09-12T14:12:19;11.30;;;10.20;;
20896;SDS011;10608;42.600;23.398;2023-09-12T14:14:45;11.93;;;11.07;;
20896;SDS011;10608;42.600;23.398;2023-09-12T14:17:11;11.27;;;10.53;;
20896;SDS011;10608;42.600;23.398;2023-09-12T14:19:36;11.53;;;10.73;;
20896;SDS011;10608;42.600;23.398;2023-09-12T14:22:02;11.83;;;10.97;;
20896;SDS011;10608;42.600;23.398;2023-09-12T14:24:28;12.77;;;11.87;;
20896;SDS011;10608;42.600;23.398;2023-09-12T14:26:53;11.37;;;10.27;;
20896;SDS011;10608;42.600;23.398;2023-09-12T14:29:19;11.60;;;10.47;;
20896;SDS011;10608;42.600;23.398;2023-09-12T14:31:44;10.97;;;10.03;;
20896;SDS011;10608;42.600;23.398;2023-09-12T14:34:15;11.20;;;10.23;;